sensor_id;sensor_type;location;lat;lon;timestamp;P1;durP1;ratioP1;P2;durP2;ratioP2
43160;SDS011;40968;52.342;5.528;2023-03-01T00:00:11;22.73;;;9.85;;
43160;SDS011;40968;52.342;5.528;2023-03-01T00:02:38;24.85;;;9.77;;
43160;SDS011;40968;52.342;5.528;2023-03-01T00:05:05;29.80;;;9.95;;
43160;SDS011;40968;52.342;5.528;2023-03-01T00:07:34;23.88;;;9.43;;
43160;SDS011;40968;52.342;5.528;2023-03-01T00:10:01;24.02;;;9.95;;
43160;SDS011;40968;52.342;5.528;2023-03-01T00:12:28;23.08;;;8.52;;
43160;SDS011;40968;52.342;5.528;2023-03-01T00:14:55;27.10;;;11.27;;
43160;SDS011;40968;52.342;5.528;2023-03-01T00:17:21;23.17;;;10.05;;
43160;SDS011;40968;52.342;5.528;2023-03-01T00:19:48;18.13;;;8.73;;
43160;SDS011;40968;52.342;5.528;2023-03-01T00:22:14;22.58;;;8.73;;
43160;SDS011;40968;52.342;5.528;2023-03-01T00:24:42;23.50;;;10.25;;
43160;SDS011;40968;52.342;5.528;2023-03-01T00:27:09;23.73;;;9.38;;
43160;SDS011;40968;52.342;5.528;2023-03-01T00:29:36;29.02;;;10.32;;
43160;SDS011;40968;52.342;5.528;2023-03-01T00:32:02;21.67;;;9.52;;
43160;SDS011;40968;52.342;5.528;2023-03-01T00:34:29;23.63;;;8.90;;
43160;SDS011;40968;52.342;5.528;2023-03-01T00:36:55;22.58;;;8.48;;
43160;SDS011;40968;52.342;5.528;2023-03-01T00:39:30;25.25;;;10.50;;
43160;SDS011;40968;52.342;5.528;2023-03-01T00:41:59;32.15;;;10.15;;
43160;SDS011;40968;52.342;5.528;2023-03-01T00:44:25;23.25;;;8.65;;
43160;SDS011;40968;52.342;5.528;2023-03-01T00:46:53;16.65;;;8.75;;
43160;SDS011;40968;52.342;5.528;2023-03-01T00:49:19;19.25;;;8.57;;
43160;SDS011;40968;52.342;5.528;2023-03-01T00:51:46;26.88;;;9.23;;
43160;SDS011;40968;52.342;5.528;2023-03-01T00:54:13;21.83;;;8.88;;
43160;SDS011;40968;52.342;5.528;2023-03-01T00:56:39;27.10;;;10.13;;
43160;SDS011;40968;52.342;5.528;2023-03-01T00:59:07;27.70;;;10.93;;
43160;SDS011;40968;52.342;5.528;2023-03-01T01:01:34;24.52;;;10.80;;
43160;SDS011;40968;52.342;5.528;2023-03-01T01:04:01;30.63;;;10.65;;
43160;SDS011;40968;52.342;5.528;2023-03-01T01:06:30;31.63;;;10.77;;
43160;SDS011;40968;52.342;5.528;2023-03-01T01:09:00;26.77;;;10.63;;
43160;SDS011;40968;52.342;5.528;2023-03-01T01:11:28;34.75;;;12.35;;
43160;SDS011;40968;52.342;5.528;2023-03-01T01:13:55;27.50;;;11.05;;
43160;SDS011;40968;52.342;5.528;2023-03-01T01:16:24;27.23;;;10.18;;
43160;SDS011;40968;52.342;5.528;2023-03-01T01:18:52;26.08;;;10.77;;
43160;SDS011;40968;52.342;5.528;2023-03-01T01:21:21;28.13;;;10.23;;
43160;SDS011;40968;52.342;5.528;2023-03-01T01:23:50;23.98;;;10.07;;
43160;SDS011;40968;52.342;5.528;2023-03-01T01:26:18;23.35;;;9.27;;
43160;SDS011;40968;52.342;5.528;2023-03-01T01:28:46;23.75;;;9.85;;
43160;SDS011;40968;52.342;5.528;2023-03-01T01:31:13;33.50;;;11.85;;
43160;SDS011;40968;52.342;5.528;2023-03-01T01:33:41;25.17;;;10.82;;
43160;SDS011;40968;52.342;5.528;2023-03-01T01:36:08;27.48;;;11.40;;
43160;SDS011;40968;52.342;5.528;2023-03-01T01:38:35;33.55;;;11.55;;
43160;SDS011;40968;52.342;5.528;2023-03-01T01:41:03;26.40;;;11.77;;
43160;SDS011;40968;52.342;5.528;2023-03-01T01:43:32;34.88;;;11.85;;
43160;SDS011;40968;52.342;5.528;2023-03-01T01:46:01;25.88;;;9.95;;
43160;SDS011;40968;52.342;5.528;2023-03-01T01:48:32;26.27;;;11.20;;
43160;SDS011;40968;52.342;5.528;2023-03-01T01:51:09;27.50;;;11.18;;
43160;SDS011;40968;52.342;5.528;2023-03-01T01:53:39;36.05;;;11.35;;
43160;SDS011;40968;52.342;5.528;2023-03-01T01:56:07;30.90;;;11.82;;
43160;SDS011;40968;52.342;5.528;2023-03-01T01:58:35;26.67;;;10.45;;
43160;SDS011;40968;52.342;5.528;2023-03-01T02:01:03;32.33;;;11.45;;
43160;SDS011;40968;52.342;5.528;2023-03-01T02:03:31;25.88;;;9.90;;
43160;SDS011;40968;52.342;5.528;2023-03-01T02:06:03;23.95;;;10.93;;
43160;SDS011;40968;52.342;5.528;2023-03-01T02:08:35;25.65;;;10.40;;
43160;SDS011;40968;52.342;5.528;2023-03-01T02:11:04;29.63;;;10.95;;
43160;SDS011;40968;52.342;5.528;2023-03-01T02:13:31;26.25;;;12.07;;
43160;SDS011;40968;52.342;5.528;2023-03-01T02:16:02;25.98;;;10.43;;
43160;SDS011;40968;52.342;5.528;2023-03-01T02:18:29;30.52;;;10.68;;
43160;SDS011;40968;52.342;5.528;2023-03-01T02:20:59;29.17;;;12.15;;
43160;SDS011;40968;52.342;5.528;2023-03-01T02:23:35;24.17;;;10.38;;
43160;SDS011;40968;52.342;5.528;2023-03-01T02:26:04;28.88;;;11.80;;
43160;SDS011;40968;52.342;5.528;2023-03-01T02:28:38;31.77;;;12.00;;
43160;SDS011;40968;52.342;5.528;2023-03-01T02:31:07;23.67;;;10.48;;
43160;SDS011;40968;52.342;5.528;2023-03-01T02:33:54;28.42;;;10.98;;
43160;SDS011;40968;52.342;5.528;2023-03-01T02:36:21;36.17;;;12.95;;
43160;SDS011;40968;52.342;5.528;2023-03-01T02:38:51;24.13;;;11.17;;
43160;SDS011;40968;52.342;5.528;2023-03-01T02:41:22;26.17;;;10.82;;
43160;SDS011;40968;52.342;5.528;2023-03-01T02:43:52;36.03;;;11.77;;
43160;SDS011;40968;52.342;5.528;2023-03-01T02:46:20;30.95;;;11.50;;
43160;SDS011;40968;52.342;5.528;2023-03-01T02:48:50;28.10;;;11.90;;
43160;SDS011;40968;52.342;5.528;2023-03-01T02:51:22;29.45;;;11.80;;
43160;SDS011;40968;52.342;5.528;2023-03-01T02:54:08;33.88;;;12.93;;
43160;SDS011;40968;52.342;5.528;2023-03-01T02:56:41;21.80;;;9.52;;
43160;SDS011;40968;52.342;5.528;2023-03-01T02:59:14;37.50;;;13.18;;
43160;SDS011;40968;52.342;5.528;2023-03-01T03:01:42;32.00;;;12.63;;
43160;SDS011;40968;52.342;5.528;2023-03-01T03:04:11;23.40;;;10.65;;
43160;SDS011;40968;52.342;5.528;2023-03-01T03:06:42;33.50;;;12.43;;
43160;SDS011;40968;52.342;5.528;2023-03-01T03:09:09;30.10;;;11.38;;
43160;SDS011;40968;52.342;5.528;2023-03-01T03:11:35;28.17;;;11.43;;
43160;SDS011;40968;52.342;5.528;2023-03-01T03:14:04;28.02;;;11.65;;
43160;SDS011;40968;52.342;5.528;2023-03-01T03:16:40;24.77;;;9.93;;
43160;SDS011;40968;52.342;5.528;2023-03-01T03:19:08;27.83;;;10.93;;
43160;SDS011;40968;52.342;5.528;2023-03-01T03:21:34;26.25;;;11.38;;
43160;SDS011;40968;52.342;5.528;2023-03-01T03:24:01;29.52;;;10.82;;
43160;SDS011;40968;52.342;5.528;2023-03-01T03:26:29;34.13;;;12.10;;
43160;SDS011;40968;52.342;5.528;2023-03-01T03:28:56;29.38;;;10.68;;
43160;SDS011;40968;52.342;5.528;2023-03-01T03:31:23;33.38;;;12.25;;
43160;SDS011;40968;52.342;5.528;2023-03-01T03:33:51;35.85;;;12.10;;
43160;SDS011;40968;52.342;5.528;2023-03-01T03:36:18;30.95;;;10.50;;
43160;SDS011;40968;52.342;5.528;2023-03-01T03:38:46;25.60;;;11.30;;
43160;SDS011;40968;52.342;5.528;2023-03-01T03:41:14;28.23;;;12.07;;
43160;SDS011;40968;52.342;5.528;2023-03-01T03:43:41;31.33;;;12.15;;
43160;SDS011;40968;52.342;5.528;2023-03-01T03:46:10;32.15;;;11.52;;
43160;SDS011;40968;52.342;5.528;2023-03-01T03:48:38;32.00;;;10.57;;
43160;SDS011;40968;52.342;5.528;2023-03-01T03:51:09;34.25;;;12.10;;
43160;SDS011;40968;52.342;5.528;2023-03-01T03:53:36;30.58;;;11.50;;
43160;SDS011;40968;52.342;5.528;2023-03-01T03:56:03;34.92;;;12.23;;
43160;SDS011;40968;52.342;5.528;2023-03-01T03:58:30;30.80;;;12.63;;
43160;SDS011;40968;52.342;5.528;2023-03-01T04:00:57;34.00;;;13.23;;
43160;SDS011;40968;52.342;5.528;2023-03-01T04:03:24;25.23;;;10.82;;
43160;SDS011;40968;52.342;5.528;2023-03-01T04:05:52;35.35;;;13.52;;
43160;SDS011;40968;52.342;5.528;2023-03-01T04:08:21;38.65;;;13.68;;
43160;SDS011;40968;52.342;5.528;2023-03-01T04:10:50;31.33;;;11.90;;
43160;SDS011;40968;52.342;5.528;2023-03-01T04:13:18;31.20;;;12.20;;
43160;SDS011;40968;52.342;5.528;2023-03-01T04:15:48;37.47;;;12.90;;
43160;SDS011;40968;52.342;5.528;2023-03-01T04:18:15;38.00;;;14.07;;
43160;SDS011;40968;52.342;5.528;2023-03-01T04:20:43;42.03;;;14.02;;
43160;SDS011;40968;52.342;5.528;2023-03-01T04:23:11;28.63;;;12.25;;
43160;SDS011;40968;52.342;5.528;2023-03-01T04:25:44;32.47;;;12.82;;
43160;SDS011;40968;52.342;5.528;2023-03-01T04:28:14;38.70;;;14.82;;
43160;SDS011;40968;52.342;5.528;2023-03-01T04:30:41;31.95;;;12.65;;
43160;SDS011;40968;52.342;5.528;2023-03-01T04:33:08;29.50;;;12.98;;
43160;SDS011;40968;52.342;5.528;2023-03-01T04:35:36;33.42;;;12.02;;
43160;SDS011;40968;52.342;5.528;2023-03-01T04:38:04;33.70;;;13.07;;
43160;SDS011;40968;52.342;5.528;2023-03-01T04:40:31;29.10;;;11.63;;
43160;SDS011;40968;52.342;5.528;2023-03-01T04:42:59;29.30;;;11.07;;
43160;SDS011;40968;52.342;5.528;2023-03-01T04:45:26;37.05;;;11.88;;
43160;SDS011;40968;52.342;5.528;2023-03-01T04:47:53;39.42;;;13.80;;
43160;SDS011;40968;52.342;5.528;2023-03-01T04:50:20;32.10;;;12.15;;
43160;SDS011;40968;52.342;5.528;2023-03-01T04:52:48;37.33;;;13.25;;
43160;SDS011;40968;52.342;5.528;2023-03-01T04:55:15;40.20;;;14.40;;
43160;SDS011;40968;52.342;5.528;2023-03-01T04:57:42;36.47;;;13.90;;
43160;SDS011;40968;52.342;5.528;2023-03-01T05:00:11;34.88;;;12.40;;
43160;SDS011;40968;52.342;5.528;2023-03-01T05:02:56;37.95;;;13.48;;
43160;SDS011;40968;52.342;5.528;2023-03-01T05:05:26;37.63;;;13.75;;
43160;SDS011;40968;52.342;5.528;2023-03-01T05:07:54;39.30;;;13.10;;
43160;SDS011;40968;52.342;5.528;2023-03-01T05:10:22;46.42;;;15.23;;
43160;SDS011;40968;52.342;5.528;2023-03-01T05:12:50;31.90;;;12.75;;
43160;SDS011;40968;52.342;5.528;2023-03-01T05:15:19;44.85;;;14.70;;
43160;SDS011;40968;52.342;5.528;2023-03-01T05:17:47;45.97;;;15.10;;
43160;SDS011;40968;52.342;5.528;2023-03-01T05:20:14;66.65;;;17.95;;
43160;SDS011;40968;52.342;5.528;2023-03-01T05:22:41;87.28;;;18.02;;
43160;SDS011;40968;52.342;5.528;2023-03-01T05:25:08;158.82;;;22.05;;
43160;SDS011;40968;52.342;5.528;2023-03-01T05:27:35;149.27;;;23.50;;
43160;SDS011;40968;52.342;5.528;2023-03-01T05:30:02;194.80;;;27.70;;
43160;SDS011;40968;52.342;5.528;2023-03-01T05:32:40;241.38;;;30.38;;
43160;SDS011;40968;52.342;5.528;2023-03-01T05:35:09;506.15;;;56.97;;
43160;SDS011;40968;52.342;5.528;2023-03-01T05:37:38;278.67;;;35.25;;
43160;SDS011;40968;52.342;5.528;2023-03-01T05:40:05;354.65;;;34.33;;
43160;SDS011;40968;52.342;5.528;2023-03-01T05:42:40;677.38;;;80.28;;
43160;SDS011;40968;52.342;5.528;2023-03-01T05:45:10;319.65;;;40.80;;
43160;SDS011;40968;52.342;5.528;2023-03-01T05:47:37;730.05;;;91.93;;
43160;SDS011;40968;52.342;5.528;2023-03-01T05:50:09;760.00;;;68.68;;
43160;SDS011;40968;52.342;5.528;2023-03-01T05:52:37;679.55;;;66.65;;
43160;SDS011;40968;52.342;5.528;2023-03-01T05:55:04;611.10;;;55.10;;
43160;SDS011;40968;52.342;5.528;2023-03-01T05:57:32;502.13;;;42.38;;
43160;SDS011;40968;52.342;5.528;2023-03-01T05:59:58;593.30;;;58.42;;
43160;SDS011;40968;52.342;5.528;2023-03-01T06:02:25;514.65;;;56.67;;
43160;SDS011;40968;52.342;5.528;2023-03-01T06:04:53;500.38;;;59.80;;
43160;SDS011;40968;52.342;5.528;2023-03-01T06:07:20;346.20;;;36.10;;
43160;SDS011;40968;52.342;5.528;2023-03-01T06:09:46;225.85;;;28.27;;
43160;SDS011;40968;52.342;5.528;2023-03-01T06:12:13;509.63;;;50.42;;
43160;SDS011;40968;52.342;5.528;2023-03-01T06:14:39;440.08;;;36.08;;
43160;SDS011;40968;52.342;5.528;2023-03-01T06:17:06;425.30;;;32.50;;
43160;SDS011;40968;52.342;5.528;2023-03-01T06:19:33;396.98;;;37.40;;
43160;SDS011;40968;52.342;5.528;2023-03-01T06:22:01;525.15;;;62.30;;
43160;SDS011;40968;52.342;5.528;2023-03-01T06:24:27;422.85;;;40.25;;
43160;SDS011;40968;52.342;5.528;2023-03-01T06:26:54;434.38;;;39.08;;
43160;SDS011;40968;52.342;5.528;2023-03-01T06:29:21;461.13;;;36.08;;
43160;SDS011;40968;52.342;5.528;2023-03-01T06:31:48;503.35;;;44.40;;
43160;SDS011;40968;52.342;5.528;2023-03-01T06:34:15;344.95;;;27.80;;
43160;SDS011;40968;52.342;5.528;2023-03-01T06:36:42;358.98;;;29.33;;
43160;SDS011;40968;52.342;5.528;2023-03-01T06:39:10;354.35;;;30.00;;
43160;SDS011;40968;52.342;5.528;2023-03-01T06:41:36;279.48;;;28.13;;
43160;SDS011;40968;52.342;5.528;2023-03-01T06:44:03;308.77;;;31.42;;
43160;SDS011;40968;52.342;5.528;2023-03-01T06:46:30;362.88;;;29.65;;
43160;SDS011;40968;52.342;5.528;2023-03-01T06:48:56;190.35;;;25.80;;
43160;SDS011;40968;52.342;5.528;2023-03-01T06:51:23;344.52;;;35.20;;
43160;SDS011;40968;52.342;5.528;2023-03-01T06:53:50;214.45;;;22.23;;
43160;SDS011;40968;52.342;5.528;2023-03-01T06:56:18;329.80;;;29.60;;
43160;SDS011;40968;52.342;5.528;2023-03-01T06:58:45;188.80;;;22.67;;
43160;SDS011;40968;52.342;5.528;2023-03-01T07:01:11;398.50;;;36.03;;
43160;SDS011;40968;52.342;5.528;2023-03-01T07:03:38;391.50;;;40.30;;
43160;SDS011;40968;52.342;5.528;2023-03-01T07:06:05;474.77;;;45.78;;
43160;SDS011;40968;52.342;5.528;2023-03-01T07:08:31;226.13;;;27.52;;
43160;SDS011;40968;52.342;5.528;2023-03-01T07:10:58;415.65;;;39.20;;
43160;SDS011;40968;52.342;5.528;2023-03-01T07:13:28;258.90;;;26.60;;
43160;SDS011;40968;52.342;5.528;2023-03-01T07:15:55;574.40;;;47.90;;
43160;SDS011;40968;52.342;5.528;2023-03-01T07:18:21;399.88;;;30.02;;
43160;SDS011;40968;52.342;5.528;2023-03-01T07:20:48;361.98;;;30.95;;
43160;SDS011;40968;52.342;5.528;2023-03-01T07:23:15;431.05;;;38.78;;
43160;SDS011;40968;52.342;5.528;2023-03-01T07:25:41;373.23;;;31.27;;
43160;SDS011;40968;52.342;5.528;2023-03-01T07:28:08;398.95;;;32.58;;
43160;SDS011;40968;52.342;5.528;2023-03-01T07:30:36;503.35;;;40.55;;
43160;SDS011;40968;52.342;5.528;2023-03-01T07:33:03;425.40;;;38.25;;
43160;SDS011;40968;52.342;5.528;2023-03-01T07:35:29;477.42;;;36.60;;
43160;SDS011;40968;52.342;5.528;2023-03-01T07:37:58;408.30;;;36.15;;
43160;SDS011;40968;52.342;5.528;2023-03-01T07:40:25;532.83;;;41.53;;
43160;SDS011;40968;52.342;5.528;2023-03-01T07:42:54;309.45;;;29.17;;
43160;SDS011;40968;52.342;5.528;2023-03-01T07:45:21;511.85;;;46.75;;
43160;SDS011;40968;52.342;5.528;2023-03-01T07:47:49;334.88;;;29.48;;
43160;SDS011;40968;52.342;5.528;2023-03-01T07:50:16;240.43;;;25.63;;
43160;SDS011;40968;52.342;5.528;2023-03-01T07:52:44;130.48;;;18.70;;
43160;SDS011;40968;52.342;5.528;2023-03-01T07:55:11;42.72;;;15.40;;
43160;SDS011;40968;52.342;5.528;2023-03-01T07:57:38;47.00;;;14.70;;
43160;SDS011;40968;52.342;5.528;2023-03-01T08:00:05;41.13;;;15.63;;
43160;SDS011;40968;52.342;5.528;2023-03-01T08:02:33;35.15;;;14.30;;
43160;SDS011;40968;52.342;5.528;2023-03-01T08:05:01;33.33;;;14.25;;
43160;SDS011;40968;52.342;5.528;2023-03-01T08:07:27;34.53;;;13.38;;
43160;SDS011;40968;52.342;5.528;2023-03-01T08:09:54;39.95;;;14.80;;
43160;SDS011;40968;52.342;5.528;2023-03-01T08:12:21;37.97;;;14.20;;
43160;SDS011;40968;52.342;5.528;2023-03-01T08:14:47;39.03;;;15.50;;
43160;SDS011;40968;52.342;5.528;2023-03-01T08:17:14;38.45;;;15.65;;
43160;SDS011;40968;52.342;5.528;2023-03-01T08:19:42;43.40;;;15.65;;
43160;SDS011;40968;52.342;5.528;2023-03-01T08:22:10;48.08;;;16.25;;
43160;SDS011;40968;52.342;5.528;2023-03-01T08:24:37;43.90;;;15.77;;
43160;SDS011;40968;52.342;5.528;2023-03-01T08:27:03;46.15;;;17.08;;
43160;SDS011;40968;52.342;5.528;2023-03-01T08:29:31;39.75;;;15.90;;
43160;SDS011;40968;52.342;5.528;2023-03-01T08:31:57;43.05;;;16.85;;
43160;SDS011;40968;52.342;5.528;2023-03-01T08:34:24;41.75;;;16.52;;
43160;SDS011;40968;52.342;5.528;2023-03-01T08:36:51;39.58;;;14.18;;
43160;SDS011;40968;52.342;5.528;2023-03-01T08:39:20;41.22;;;15.60;;
43160;SDS011;40968;52.342;5.528;2023-03-01T08:41:47;44.90;;;16.05;;
43160;SDS011;40968;52.342;5.528;2023-03-01T08:44:14;42.70;;;17.25;;
43160;SDS011;40968;52.342;5.528;2023-03-01T08:46:43;46.50;;;17.13;;
43160;SDS011;40968;52.342;5.528;2023-03-01T08:49:11;42.03;;;16.20;;
43160;SDS011;40968;52.342;5.528;2023-03-01T08:51:39;41.75;;;15.48;;
43160;SDS011;40968;52.342;5.528;2023-03-01T08:54:07;34.60;;;14.00;;
43160;SDS011;40968;52.342;5.528;2023-03-01T08:56:38;40.92;;;14.68;;
43160;SDS011;40968;52.342;5.528;2023-03-01T08:59:05;42.30;;;15.48;;
43160;SDS011;40968;52.342;5.528;2023-03-01T09:01:32;43.45;;;14.88;;
43160;SDS011;40968;52.342;5.528;2023-03-01T09:03:58;43.58;;;15.38;;
43160;SDS011;40968;52.342;5.528;2023-03-01T09:06:25;38.30;;;13.93;;
43160;SDS011;40968;52.342;5.528;2023-03-01T09:08:52;45.20;;;14.50;;
43160;SDS011;40968;52.342;5.528;2023-03-01T09:11:20;37.38;;;13.45;;
43160;SDS011;40968;52.342;5.528;2023-03-01T09:13:49;37.20;;;13.80;;
43160;SDS011;40968;52.342;5.528;2023-03-01T09:16:16;39.33;;;13.95;;
43160;SDS011;40968;52.342;5.528;2023-03-01T09:18:48;44.45;;;13.85;;
43160;SDS011;40968;52.342;5.528;2023-03-01T09:21:16;40.42;;;14.18;;
43160;SDS011;40968;52.342;5.528;2023-03-01T09:23:44;49.33;;;14.77;;
43160;SDS011;40968;52.342;5.528;2023-03-01T09:26:13;38.78;;;13.88;;
43160;SDS011;40968;52.342;5.528;2023-03-01T09:28:41;41.78;;;15.48;;
43160;SDS011;40968;52.342;5.528;2023-03-01T09:31:11;43.05;;;15.15;;
43160;SDS011;40968;52.342;5.528;2023-03-01T09:33:39;39.38;;;13.57;;
43160;SDS011;40968;52.342;5.528;2023-03-01T09:36:08;42.05;;;13.43;;
43160;SDS011;40968;52.342;5.528;2023-03-01T09:38:37;44.38;;;14.10;;
43160;SDS011;40968;52.342;5.528;2023-03-01T09:41:08;34.65;;;12.88;;
43160;SDS011;40968;52.342;5.528;2023-03-01T09:43:39;39.20;;;13.75;;
43160;SDS011;40968;52.342;5.528;2023-03-01T09:46:13;41.45;;;13.32;;
43160;SDS011;40968;52.342;5.528;2023-03-01T09:48:42;37.55;;;12.80;;
43160;SDS011;40968;52.342;5.528;2023-03-01T09:51:12;39.97;;;12.25;;
43160;SDS011;40968;52.342;5.528;2023-03-01T09:53:44;35.35;;;12.85;;
43160;SDS011;40968;52.342;5.528;2023-03-01T09:56:12;41.88;;;13.02;;
43160;SDS011;40968;52.342;5.528;2023-03-01T09:58:47;27.58;;;11.40;;
43160;SDS011;40968;52.342;5.528;2023-03-01T10:01:32;47.47;;;13.15;;
43160;SDS011;40968;52.342;5.528;2023-03-01T10:04:12;31.85;;;12.18;;
43160;SDS011;40968;52.342;5.528;2023-03-01T10:06:51;29.70;;;11.25;;
43160;SDS011;40968;52.342;5.528;2023-03-01T10:09:27;38.20;;;12.07;;
43160;SDS011;40968;52.342;5.528;2023-03-01T10:11:59;35.33;;;12.00;;
43160;SDS011;40968;52.342;5.528;2023-03-01T10:14:30;21.48;;;8.98;;
43160;SDS011;40968;52.342;5.528;2023-03-01T10:17:03;29.23;;;10.27;;
43160;SDS011;40968;52.342;5.528;2023-03-01T10:19:36;26.38;;;10.13;;
43160;SDS011;40968;52.342;5.528;2023-03-01T10:22:09;26.23;;;9.57;;
43160;SDS011;40968;52.342;5.528;2023-03-01T10:24:39;26.40;;;9.73;;
43160;SDS011;40968;52.342;5.528;2023-03-01T10:27:07;24.80;;;8.75;;
43160;SDS011;40968;52.342;5.528;2023-03-01T10:29:44;23.25;;;8.68;;
43160;SDS011;40968;52.342;5.528;2023-03-01T10:32:17;21.60;;;7.95;;
43160;SDS011;40968;52.342;5.528;2023-03-01T10:34:47;20.42;;;7.20;;
43160;SDS011;40968;52.342;5.528;2023-03-01T10:37:14;21.33;;;7.70;;
43160;SDS011;40968;52.342;5.528;2023-03-01T10:42:34;17.55;;;7.15;;
43160;SDS011;40968;52.342;5.528;2023-03-01T10:48:10;15.85;;;6.53;;
43160;SDS011;40968;52.342;5.528;2023-03-01T10:50:39;20.23;;;6.83;;
43160;SDS011;40968;52.342;5.528;2023-03-01T10:53:21;16.55;;;6.20;;
43160;SDS011;40968;52.342;5.528;2023-03-01T10:55:58;22.85;;;6.03;;
43160;SDS011;40968;52.342;5.528;2023-03-01T10:58:27;18.35;;;5.38;;
43160;SDS011;40968;52.342;5.528;2023-03-01T11:00:55;18.65;;;6.30;;
43160;SDS011;40968;52.342;5.528;2023-03-01T11:03:25;14.80;;;5.25;;
43160;SDS011;40968;52.342;5.528;2023-03-01T11:05:55;15.43;;;5.20;;
43160;SDS011;40968;52.342;5.528;2023-03-01T11:08:31;14.82;;;5.38;;
43160;SDS011;40968;52.342;5.528;2023-03-01T11:13:57;14.35;;;4.82;;
43160;SDS011;40968;52.342;5.528;2023-03-01T11:16:31;12.35;;;4.50;;
43160;SDS011;40968;52.342;5.528;2023-03-01T11:19:03;10.07;;;4.43;;
43160;SDS011;40968;52.342;5.528;2023-03-01T11:21:41;12.82;;;5.35;;
43160;SDS011;40968;52.342;5.528;2023-03-01T11:24:14;12.85;;;4.45;;
43160;SDS011;40968;52.342;5.528;2023-03-01T11:26:44;10.93;;;4.82;;
43160;SDS011;40968;52.342;5.528;2023-03-01T11:29:16;16.02;;;4.78;;
43160;SDS011;40968;52.342;5.528;2023-03-01T11:31:47;13.73;;;5.53;;
43160;SDS011;40968;52.342;5.528;2023-03-01T11:34:17;11.50;;;4.63;;
43160;SDS011;40968;52.342;5.528;2023-03-01T11:36:53;14.80;;;5.65;;
43160;SDS011;40968;52.342;5.528;2023-03-01T11:39:26;14.80;;;5.50;;
43160;SDS011;40968;52.342;5.528;2023-03-01T11:42:00;12.05;;;5.43;;
43160;SDS011;40968;52.342;5.528;2023-03-01T11:44:31;13.02;;;4.88;;
43160;SDS011;40968;52.342;5.528;2023-03-01T11:47:15;16.00;;;4.82;;
43160;SDS011;40968;52.342;5.528;2023-03-01T11:53:00;13.77;;;4.22;;
43160;SDS011;40968;52.342;5.528;2023-03-01T11:55:39;8.90;;;3.75;;
43160;SDS011;40968;52.342;5.528;2023-03-01T11:58:27;11.77;;;4.50;;
43160;SDS011;40968;52.342;5.528;2023-03-01T12:01:07;13.48;;;4.32;;
43160;SDS011;40968;52.342;5.528;2023-03-01T12:03:47;9.70;;;3.97;;
43160;SDS011;40968;52.342;5.528;2023-03-01T12:06:36;13.02;;;4.55;;
43160;SDS011;40968;52.342;5.528;2023-03-01T12:11:47;11.52;;;3.85;;
43160;SDS011;40968;52.342;5.528;2023-03-01T12:14:36;11.35;;;4.43;;
43160;SDS011;40968;52.342;5.528;2023-03-01T12:20:14;12.00;;;4.30;;
43160;SDS011;40968;52.342;5.528;2023-03-01T12:22:52;18.40;;;4.88;;
43160;SDS011;40968;52.342;5.528;2023-03-01T12:25:31;14.75;;;4.90;;
43160;SDS011;40968;52.342;5.528;2023-03-01T12:28:26;12.63;;;4.22;;
43160;SDS011;40968;52.342;5.528;2023-03-01T12:34:00;10.63;;;3.90;;
43160;SDS011;40968;52.342;5.528;2023-03-01T12:36:43;11.45;;;4.40;;
43160;SDS011;40968;52.342;5.528;2023-03-01T12:39:24;11.65;;;4.43;;
43160;SDS011;40968;52.342;5.528;2023-03-01T12:42:02;11.77;;;4.38;;
43160;SDS011;40968;52.342;5.528;2023-03-01T12:47:47;11.45;;;4.30;;
43160;SDS011;40968;52.342;5.528;2023-03-01T12:50:28;12.52;;;4.18;;
43160;SDS011;40968;52.342;5.528;2023-03-01T12:53:07;8.27;;;3.85;;
43160;SDS011;40968;52.342;5.528;2023-03-01T12:55:47;13.52;;;4.35;;
43160;SDS011;40968;52.342;5.528;2023-03-01T12:58:17;14.52;;;4.85;;
43160;SDS011;40968;52.342;5.528;2023-03-01T13:00:53;12.85;;;4.68;;
43160;SDS011;40968;52.342;5.528;2023-03-01T13:03:42;12.98;;;4.32;;
43160;SDS011;40968;52.342;5.528;2023-03-01T13:06:24;12.60;;;4.10;;
43160;SDS011;40968;52.342;5.528;2023-03-01T13:09:04;12.60;;;4.30;;
43160;SDS011;40968;52.342;5.528;2023-03-01T13:11:42;10.30;;;4.20;;
43160;SDS011;40968;52.342;5.528;2023-03-01T13:17:01;14.82;;;4.05;;
43160;SDS011;40968;52.342;5.528;2023-03-01T13:19:28;15.75;;;4.05;;
43160;SDS011;40968;52.342;5.528;2023-03-01T13:21:57;11.35;;;4.43;;
43160;SDS011;40968;52.342;5.528;2023-03-01T13:24:25;13.65;;;4.55;;
43160;SDS011;40968;52.342;5.528;2023-03-01T13:27:11;14.98;;;4.75;;
43160;SDS011;40968;52.342;5.528;2023-03-01T13:29:50;12.60;;;4.32;;
43160;SDS011;40968;52.342;5.528;2023-03-01T13:32:19;13.70;;;4.40;;
43160;SDS011;40968;52.342;5.528;2023-03-01T13:34:50;15.18;;;4.57;;
43160;SDS011;40968;52.342;5.528;2023-03-01T13:37:20;13.65;;;4.80;;
43160;SDS011;40968;52.342;5.528;2023-03-01T13:39:56;15.48;;;4.90;;
43160;SDS011;40968;52.342;5.528;2023-03-01T13:45:13;14.80;;;5.10;;
43160;SDS011;40968;52.342;5.528;2023-03-01T13:47:43;19.10;;;4.78;;
43160;SDS011;40968;52.342;5.528;2023-03-01T13:50:16;13.38;;;4.60;;
43160;SDS011;40968;52.342;5.528;2023-03-01T13:52:48;15.57;;;5.30;;
43160;SDS011;40968;52.342;5.528;2023-03-01T13:55:18;12.68;;;4.40;;
43160;SDS011;40968;52.342;5.528;2023-03-01T13:57:51;13.70;;;4.75;;
43160;SDS011;40968;52.342;5.528;2023-03-01T14:00:27;9.50;;;4.30;;
43160;SDS011;40968;52.342;5.528;2023-03-01T14:03:08;10.48;;;4.13;;
43160;SDS011;40968;52.342;5.528;2023-03-01T14:05:38;11.80;;;4.28;;
43160;SDS011;40968;52.342;5.528;2023-03-01T14:08:17;10.90;;;4.63;;
43160;SDS011;40968;52.342;5.528;2023-03-01T14:10:49;15.87;;;4.73;;
43160;SDS011;40968;52.342;5.528;2023-03-01T14:13:37;14.60;;;5.57;;
43160;SDS011;40968;52.342;5.528;2023-03-01T14:16:17;13.50;;;4.47;;
43160;SDS011;40968;52.342;5.528;2023-03-01T14:18:57;10.10;;;4.43;;
43160;SDS011;40968;52.342;5.528;2023-03-01T14:21:35;12.40;;;4.38;;
43160;SDS011;40968;52.342;5.528;2023-03-01T14:24:02;15.90;;;4.88;;
43160;SDS011;40968;52.342;5.528;2023-03-01T14:26:29;11.88;;;4.40;;
43160;SDS011;40968;52.342;5.528;2023-03-01T14:28:59;13.85;;;4.72;;
43160;SDS011;40968;52.342;5.528;2023-03-01T14:31:32;10.57;;;4.28;;
43160;SDS011;40968;52.342;5.528;2023-03-01T14:34:02;13.57;;;4.40;;
43160;SDS011;40968;52.342;5.528;2023-03-01T14:36:30;11.93;;;4.40;;
43160;SDS011;40968;52.342;5.528;2023-03-01T14:38:59;15.95;;;4.85;;
43160;SDS011;40968;52.342;5.528;2023-03-01T14:44:00;13.43;;;4.85;;
43160;SDS011;40968;52.342;5.528;2023-03-01T14:46:30;11.75;;;4.72;;
43160;SDS011;40968;52.342;5.528;2023-03-01T14:49:01;12.02;;;4.15;;
43160;SDS011;40968;52.342;5.528;2023-03-01T14:51:29;12.13;;;4.60;;
43160;SDS011;40968;52.342;5.528;2023-03-01T14:53:56;12.75;;;4.32;;
43160;SDS011;40968;52.342;5.528;2023-03-01T14:56:23;10.60;;;4.60;;
43160;SDS011;40968;52.342;5.528;2023-03-01T14:58:53;12.77;;;5.07;;
43160;SDS011;40968;52.342;5.528;2023-03-01T15:01:25;11.07;;;4.63;;
43160;SDS011;40968;52.342;5.528;2023-03-01T15:03:52;15.13;;;4.68;;
43160;SDS011;40968;52.342;5.528;2023-03-01T15:06:20;13.00;;;4.53;;
43160;SDS011;40968;52.342;5.528;2023-03-01T15:08:49;16.70;;;5.40;;
43160;SDS011;40968;52.342;5.528;2023-03-01T15:11:20;15.07;;;5.05;;